createdAt,value
2019-02-20T00:02:11.789Z,101080.28
2019-02-20T00:04:52.439Z,101075.88
2019-02-20T00:07:23.779Z,101077.95
2019-02-20T00:09:55.109Z,101074.78
2019-02-20T00:12:26.485Z,101078.54
2019-02-20T00:14:57.728Z,101082.56
2019-02-20T00:17:29.070Z,101080.61
2019-02-20T00:20:00.409Z,101083.92
2019-02-20T00:22:40.038Z,101085.66
2019-02-20T00:25:06.505Z,101081.42
2019-02-20T00:27:37.904Z,101083.88
2019-02-20T00:30:11.290Z,101087.39
2019-02-20T00:32:42.644Z,101090.81
2019-02-20T00:35:14.118Z,101089.44
2019-02-20T00:37:45.386Z,101089.69
2019-02-20T00:40:16.642Z,101089.20
2019-02-20T00:42:48.165Z,101090.17
2019-02-20T00:45:29.406Z,101078.35
2019-02-20T00:48:02.355Z,101080.23
2019-02-20T00:50:35.280Z,101087.73
2019-02-20T00:53:14.375Z,101091.55
2019-02-20T00:55:45.708Z,101087.72
2019-02-20T00:58:17.009Z,101096.99
2019-02-20T01:00:48.416Z,101096.00
2019-02-20T01:03:20.586Z,101101.36
2019-02-20T01:05:51.933Z,101106.31
2019-02-20T01:08:23.325Z,101110.14
2019-02-20T01:11:00.460Z,101111.21
2019-02-20T01:13:32.213Z,101117.81
2019-02-20T01:16:03.789Z,101117.79
2019-02-20T01:18:35.183Z,101117.30
2019-02-20T01:21:06.857Z,101114.34
2019-02-20T01:23:38.191Z,101113.45
2019-02-20T01:26:09.585Z,101116.20
2019-02-20T01:28:40.981Z,101114.90
2019-02-20T01:31:12.294Z,101108.00
2019-02-20T01:33:43.635Z,101114.57
2019-02-20T01:36:15.024Z,101110.31
2019-02-20T01:38:46.298Z,101110.37
2019-02-20T01:41:17.689Z,101115.22
2019-02-20T01:43:49.110Z,101122.09
2019-02-20T01:46:20.516Z,101115.08
2019-02-20T01:48:51.830Z,101113.38
2019-02-20T01:51:23.220Z,101110.10
2019-02-20T01:53:54.486Z,101108.13
2019-02-20T01:56:26.879Z,101108.67
2019-02-20T01:58:58.234Z,101108.72
2019-02-20T02:01:29.560Z,101111.59
2019-02-20T02:04:02.319Z,101107.14
2019-02-20T02:06:34.883Z,101108.53
2019-02-20T02:09:07.859Z,101100.64
2019-02-20T02:11:40.033Z,101107.46
2019-02-20T02:14:11.447Z,101100.95
2019-02-20T02:16:42.846Z,101100.95
2019-02-20T02:19:18.027Z,101106.11
2019-02-20T02:21:49.334Z,101105.27
2019-02-20T02:24:20.814Z,101108.18
2019-02-20T02:26:52.340Z,101111.23
2019-02-20T02:29:23.776Z,101106.74
2019-02-20T02:31:55.110Z,101099.42
2019-02-20T02:34:26.473Z,101102.61
2019-02-20T02:36:57.749Z,101102.39
2019-02-20T02:39:29.043Z,101099.73
2019-02-20T02:42:00.314Z,101095.70
2019-02-20T02:44:31.841Z,101088.73
2019-02-20T02:47:03.169Z,101088.45
2019-02-20T02:49:35.505Z,101088.31
2019-02-20T02:52:06.806Z,101083.28
2019-02-20T02:54:38.287Z,101086.06
2019-02-20T02:57:09.731Z,101088.02
2019-02-20T02:59:41.149Z,101085.02
2019-02-20T03:02:12.562Z,101089.02
2019-02-20T03:04:44.788Z,101090.66
2019-02-20T03:07:16.236Z,101093.27
2019-02-20T03:09:47.534Z,101091.70
2019-02-20T03:12:18.982Z,101084.17
2019-02-20T03:14:50.663Z,101085.94
2019-02-20T03:17:21.970Z,101088.77
2019-02-20T03:19:53.414Z,101083.35
2019-02-20T03:22:25.027Z,101086.63
2019-02-20T03:24:59.586Z,101082.10
2019-02-20T03:27:30.984Z,101079.01
2019-02-20T03:30:18.654Z,101082.73
2019-02-20T03:32:50.274Z,101084.44
2019-02-20T03:35:22.691Z,101084.13
2019-02-20T03:37:54.182Z,101084.88
2019-02-20T03:40:25.624Z,101083.77
2019-02-20T03:42:56.923Z,101084.48
2019-02-20T03:45:28.359Z,101091.48
2019-02-20T03:47:59.622Z,101091.39
2019-02-20T03:50:31.034Z,101093.05
2019-02-20T03:53:02.454Z,101092.38
2019-02-20T03:55:33.790Z,101094.22
2019-02-20T03:58:05.111Z,101091.84
2019-02-20T04:00:36.580Z,101091.26
2019-02-20T04:03:10.292Z,101088.78
2019-02-20T04:05:42.329Z,101096.69
2019-02-20T04:08:13.696Z,101105.88
2019-02-20T04:10:45.320Z,101110.32
2019-02-20T04:13:16.572Z,101112.52
2019-02-20T04:15:49.973Z,101106.20
2019-02-20T04:18:21.584Z,101107.68
2019-02-20T04:20:52.989Z,101108.17
2019-02-20T04:23:24.416Z,101112.13
2019-02-20T04:25:55.880Z,101108.66
2019-02-20T04:28:27.556Z,101108.37
2019-02-20T04:30:59.264Z,101108.91
2019-02-20T04:33:30.676Z,101105.05
2019-02-20T04:36:02.402Z,101100.23
2019-02-20T04:38:33.985Z,101103.21
2019-02-20T04:41:05.689Z,101105.32
2019-02-20T04:43:37.159Z,101106.89
2019-02-20T04:46:08.673Z,101104.83
2019-02-20T04:48:40.210Z,101110.22
2019-02-20T04:51:11.505Z,101110.92
2019-02-20T04:53:43.004Z,101112.56
2019-02-20T04:56:14.427Z,101113.50
2019-02-20T04:58:47.456Z,101115.32
2019-02-20T05:01:20.167Z,101117.95
2019-02-20T05:03:52.771Z,101120.95
2019-02-20T05:06:24.107Z,101130.34
2019-02-20T05:08:55.467Z,101134.84
2019-02-20T05:11:26.929Z,101136.67
2019-02-20T05:13:58.412Z,101137.75
2019-02-20T05:16:30.307Z,101138.36
2019-02-20T05:19:01.849Z,101142.95
2019-02-20T05:21:33.469Z,101134.25
2019-02-20T05:24:05.124Z,101138.17
2019-02-20T05:26:36.672Z,101140.77
2019-02-20T05:29:08.139Z,101141.28
2019-02-20T05:31:45.108Z,101139.28
2019-02-20T05:34:24.346Z,101147.38
2019-02-20T05:36:55.624Z,101143.38
2019-02-20T05:39:27.256Z,101139.08
2019-02-20T05:41:58.593Z,101141.09
2019-02-20T05:44:29.986Z,101146.00
2019-02-20T05:47:01.421Z,101142.10
2019-02-20T05:49:32.764Z,101147.41
2019-02-20T05:52:04.193Z,101150.31
2019-02-20T05:54:35.629Z,101149.30
2019-02-20T05:57:06.907Z,101148.39
2019-02-20T05:59:38.299Z,101155.00
2019-02-20T06:02:09.650Z,101157.11
2019-02-20T06:04:41.002Z,101162.42
2019-02-20T06:07:12.377Z,101160.33
2019-02-20T06:09:44.795Z,101168.63
2019-02-20T06:12:16.535Z,101163.13
2019-02-20T06:14:48.187Z,101171.63
2019-02-20T06:17:19.613Z,101171.72
2019-02-20T06:19:51.013Z,101172.02
2019-02-20T06:22:22.346Z,101172.11
2019-02-20T06:24:53.693Z,101175.61
2019-02-20T06:27:24.987Z,101174.91
2019-02-20T06:29:56.380Z,101180.30
2019-02-20T06:32:27.723Z,101178.49
2019-02-20T06:34:59.028Z,101180.50
2019-02-20T06:37:30.316Z,101176.00
2019-02-20T06:40:01.669Z,101176.80
2019-02-20T06:42:33.100Z,101173.91
2019-02-20T06:45:06.770Z,101176.70
2019-02-20T06:47:38.151Z,101182.30
2019-02-20T06:50:09.909Z,101188.00
2019-02-20T06:52:41.174Z,101198.30
2019-02-20T06:55:13.463Z,101200.59
2019-02-20T06:57:44.735Z,101202.69
2019-02-20T07:00:16.290Z,101206.59
2019-02-20T07:02:47.640Z,101204.89
2019-02-20T07:05:32.648Z,101205.18
2019-02-20T07:08:40.212Z,101206.58
2019-02-20T07:11:37.540Z,101203.08
2019-02-20T07:14:41.042Z,101206.87
2019-02-20T07:17:25.940Z,101212.07
2019-02-20T07:20:16.315Z,101212.36
2019-02-20T07:23:22.447Z,101209.45
2019-02-20T07:26:33.022Z,101213.36
2019-02-20T07:29:20.434Z,101212.89
2019-02-20T07:31:51.823Z,101213.67
2019-02-20T07:34:24.320Z,101218.86
2019-02-20T07:36:55.644Z,101218.65
2019-02-20T07:39:26.960Z,101225.44
2019-02-20T07:41:58.272Z,101228.02
2019-02-20T07:44:29.678Z,101232.00
2019-02-20T07:47:00.991Z,101228.98
2019-02-20T07:49:32.325Z,101228.36
2019-02-20T07:52:03.655Z,101228.15
2019-02-20T07:54:35.007Z,101229.52
2019-02-20T07:57:06.481Z,101237.80
2019-02-20T07:59:37.752Z,101236.87
2019-02-20T08:02:09.259Z,101237.95
2019-02-20T08:04:40.585Z,101241.73
2019-02-20T08:07:11.908Z,101239.22
2019-02-20T08:09:43.344Z,101244.80
2019-02-20T08:12:14.737Z,101242.66
2019-02-20T08:14:46.176Z,101245.72
2019-02-20T08:17:17.553Z,101249.59
2019-02-20T08:19:48.982Z,101253.15
2019-02-20T08:22:20.345Z,101251.30
2019-02-20T08:24:51.657Z,101255.25
2019-02-20T08:27:23.013Z,101260.69
2019-02-20T08:29:54.356Z,101272.95
2019-02-20T08:32:25.724Z,101275.37
2019-02-20T08:34:56.999Z,101274.09
2019-02-20T08:37:28.312Z,101274.30
2019-02-20T08:39:59.566Z,101261.20
2019-02-20T08:42:30.955Z,101263.02
2019-02-20T08:45:02.303Z,101261.09
2019-02-20T08:47:33.683Z,101267.23
2019-02-20T08:50:10.455Z,101276.06
2019-02-20T08:52:42.004Z,101280.56
2019-02-20T08:55:13.451Z,101282.13
2019-02-20T08:57:44.867Z,101274.95
2019-02-20T09:00:16.516Z,101286.82
2019-02-20T09:02:47.949Z,101286.66
2019-02-20T09:05:19.358Z,101292.13
2019-02-20T09:07:50.617Z,101296.46
2019-02-20T09:10:23.339Z,101291.64
2019-02-20T09:12:54.666Z,101297.03
2019-02-20T09:15:27.816Z,101295.55
2019-02-20T09:17:59.066Z,101296.69
2019-02-20T09:20:30.448Z,101298.63
2019-02-20T09:23:01.701Z,101305.56
2019-02-20T09:25:41.312Z,101304.73
2019-02-20T09:28:06.100Z,101304.55
2019-02-20T09:30:37.535Z,101305.91
2019-02-20T09:33:08.889Z,101310.78
2019-02-20T09:35:40.214Z,101307.32
2019-02-20T09:38:11.540Z,101311.55
2019-02-20T09:40:42.884Z,101309.53
2019-02-20T09:43:14.198Z,101313.57
2019-02-20T09:45:45.550Z,101316.02
2019-02-20T09:48:16.950Z,101312.34
2019-02-20T09:50:49.417Z,101315.47
2019-02-20T09:53:20.689Z,101309.97
2019-02-20T09:55:52.117Z,101316.11
2019-02-20T09:58:23.538Z,101319.64
2019-02-20T10:00:54.930Z,101317.92
2019-02-20T10:03:26.276Z,101321.16
2019-02-20T10:05:57.681Z,101318.70
2019-02-20T10:08:30.123Z,101318.61
2019-02-20T10:11:01.407Z,101320.64
2019-02-20T10:13:32.924Z,101326.55
2019-02-20T10:16:04.212Z,101330.13
2019-02-20T10:18:35.623Z,101330.94
2019-02-20T10:21:07.025Z,101330.61
2019-02-20T10:23:38.294Z,101338.44
2019-02-20T10:26:09.600Z,101337.63
2019-02-20T10:28:41.908Z,101337.22
2019-02-20T10:31:13.245Z,101329.14
2019-02-20T10:33:44.647Z,101324.59
2019-02-20T10:36:16.144Z,101324.14
2019-02-20T10:38:47.394Z,101321.54
2019-02-20T10:41:18.741Z,101325.56
2019-02-20T10:43:51.229Z,101325.06
2019-02-20T10:46:22.577Z,101317.44
2019-02-20T10:48:53.913Z,101316.97
2019-02-20T10:51:25.337Z,101309.49
2019-02-20T10:53:56.693Z,101309.52
2019-02-20T10:56:28.032Z,101301.25
2019-02-20T10:58:59.376Z,101306.45
2019-02-20T11:01:30.817Z,101309.02
2019-02-20T11:04:02.101Z,101316.05
2019-02-20T11:06:33.699Z,101311.54
2019-02-20T11:09:06.600Z,101306.28
2019-02-20T11:11:39.534Z,101310.28
2019-02-20T11:14:11.076Z,101309.90
2019-02-20T11:16:42.423Z,101312.05
2019-02-20T11:19:15.606Z,101303.84
2019-02-20T11:21:46.782Z,101304.50
2019-02-20T11:24:18.138Z,101307.81
2019-02-20T11:26:54.282Z,101303.22
2019-02-20T11:29:23.602Z,101305.31
2019-02-20T11:31:56.509Z,101305.73
2019-02-20T11:34:27.941Z,101301.33
2019-02-20T11:36:59.219Z,101305.38
2019-02-20T11:39:37.554Z,101308.80
2019-02-20T11:42:03.776Z,101306.69
2019-02-20T11:44:35.305Z,101301.66
2019-02-20T11:47:06.723Z,101296.88
2019-02-20T11:49:38.149Z,101300.34
2019-02-20T11:52:09.430Z,101293.64
2019-02-20T11:54:41.025Z,101288.95
2019-02-20T11:57:13.940Z,101279.97
2019-02-20T11:59:45.470Z,101280.09
2019-02-20T12:02:16.754Z,101282.50
2019-02-20T12:04:48.180Z,101281.21
2019-02-20T12:07:19.610Z,101280.27
2019-02-20T12:09:51.018Z,101274.12
2019-02-20T12:12:22.467Z,101273.08
2019-02-20T12:14:53.937Z,101272.94
2019-02-20T12:17:25.291Z,101272.80
2019-02-20T12:19:56.704Z,101271.20
2019-02-20T12:22:28.255Z,101277.01
2019-02-20T12:24:59.687Z,101273.58
2019-02-20T12:27:31.020Z,101269.21
2019-02-20T12:30:02.581Z,101264.30
2019-02-20T12:32:35.685Z,101257.78
2019-02-20T12:35:08.995Z,101262.81
2019-02-20T12:37:40.516Z,101263.03
2019-02-20T12:40:12.305Z,101259.58
2019-02-20T12:42:43.601Z,101257.97
2019-02-20T12:45:15.015Z,101259.41
2019-02-20T12:47:46.451Z,101256.42
2019-02-20T12:50:17.924Z,101256.83
2019-02-20T12:52:49.211Z,101254.08
2019-02-20T12:55:20.544Z,101259.85
2019-02-20T12:57:51.912Z,101256.83
2019-02-20T13:00:23.410Z,101264.80
2019-02-20T13:02:54.753Z,101259.39
2019-02-20T13:05:26.304Z,101258.97
2019-02-20T13:07:57.555Z,101255.86
2019-02-20T13:10:28.951Z,101257.15
2019-02-20T13:13:00.299Z,101257.57
2019-02-20T13:15:32.908Z,101251.80
2019-02-20T13:18:04.326Z,101253.20
2019-02-20T13:20:35.803Z,101251.19
2019-02-20T13:23:07.164Z,101251.63
2019-02-20T13:25:47.962Z,101246.08
2019-02-20T13:28:19.247Z,101247.05
2019-02-20T13:30:50.572Z,101244.51
2019-02-20T13:33:21.841Z,101245.38
2019-02-20T13:35:53.163Z,101241.85
2019-02-20T13:38:24.525Z,101239.41
2019-02-20T13:40:55.935Z,101236.94
2019-02-20T13:43:27.489Z,101238.38
2019-02-20T13:45:59.084Z,101234.38
2019-02-20T13:48:30.594Z,101238.27
2019-02-20T13:51:01.987Z,101230.70
2019-02-20T13:53:33.718Z,101233.25
2019-02-20T13:56:05.269Z,101234.53
2019-02-20T13:58:37.170Z,101230.91
2019-02-20T14:01:08.603Z,101232.22
2019-02-20T14:03:42.358Z,101231.25
2019-02-20T14:06:16.022Z,101228.08
2019-02-20T14:08:47.694Z,101233.25
2019-02-20T14:11:27.812Z,101227.48
2019-02-20T14:13:59.274Z,101228.39
2019-02-20T14:16:30.625Z,101225.34
2019-02-20T14:19:03.107Z,101225.72
2019-02-20T14:21:36.719Z,101223.86
2019-02-20T14:24:08.269Z,101222.11
2019-02-20T14:26:39.543Z,101217.16
2019-02-20T14:29:11.945Z,101217.57
2019-02-20T14:31:43.361Z,101213.55
2019-02-20T14:34:15.004Z,101211.30
2019-02-20T14:36:46.299Z,101207.73
2019-02-20T14:39:17.695Z,101211.34
2019-02-20T14:41:49.152Z,101207.82
2019-02-20T14:44:20.633Z,101212.23
2019-02-20T14:46:52.296Z,101203.80
2019-02-20T14:49:23.634Z,101206.42
2019-02-20T14:51:55.127Z,101208.09
2019-02-20T14:54:45.770Z,101200.47
2019-02-20T14:57:24.968Z,101211.51
2019-02-20T14:59:56.390Z,101213.69
2019-02-20T15:02:27.780Z,101210.22
2019-02-20T15:04:59.133Z,101207.62
2019-02-20T15:07:30.937Z,101204.94
2019-02-20T15:10:02.787Z,101202.67
2019-02-20T15:12:34.887Z,101203.52
2019-02-20T15:15:12.560Z,101206.56
2019-02-20T15:17:44.181Z,101206.48
2019-02-20T15:20:15.913Z,101206.91
2019-02-20T15:22:47.373Z,101211.36
2019-02-20T15:25:18.710Z,101199.96
2019-02-20T15:27:50.243Z,101200.94
2019-02-20T15:30:21.751Z,101200.58
2019-02-20T15:32:53.149Z,101202.61
2019-02-20T15:35:24.632Z,101198.33
2019-02-20T15:37:56.111Z,101209.13
2019-02-20T15:40:37.806Z,101205.75
2019-02-20T15:43:09.305Z,101198.35
2019-02-20T15:45:42.304Z,101194.42
2019-02-20T15:48:13.688Z,101193.47
2019-02-20T15:50:45.059Z,101193.78
2019-02-20T15:53:16.389Z,101199.72
2019-02-20T15:55:47.819Z,101194.27
2019-02-20T15:58:19.756Z,101194.02
2019-02-20T16:00:50.351Z,101197.52
2019-02-20T16:03:21.951Z,101193.53
2019-02-20T16:05:54.390Z,101195.67
2019-02-20T16:08:25.775Z,101200.05
2019-02-20T16:10:57.125Z,101203.03
2019-02-20T16:13:34.459Z,101213.08
2019-02-20T16:16:06.070Z,101203.27
2019-02-20T16:18:37.533Z,101212.45
2019-02-20T16:21:10.099Z,101215.88
2019-02-20T16:23:43.406Z,101210.92
2019-02-20T16:26:14.989Z,101216.53
2019-02-20T16:28:46.260Z,101211.55
2019-02-20T16:31:19.336Z,101220.33
2019-02-20T16:33:53.693Z,101216.27
2019-02-20T16:36:25.769Z,101212.17
2019-02-20T16:38:57.067Z,101212.92
2019-02-20T16:41:28.467Z,101215.47
2019-02-20T16:43:59.801Z,101213.16
2019-02-20T16:46:32.274Z,101223.17
2019-02-20T16:49:04.185Z,101223.95
2019-02-20T16:51:40.616Z,101223.80
2019-02-20T16:54:14.258Z,101228.53
2019-02-20T16:56:45.690Z,101233.34
2019-02-20T16:59:17.123Z,101231.47
2019-02-20T17:01:49.150Z,101230.06
2019-02-20T17:04:20.666Z,101231.77
2019-02-20T17:06:53.820Z,101232.95
2019-02-20T17:09:25.235Z,101232.90
2019-02-20T17:11:58.868Z,101235.45
2019-02-20T17:14:33.357Z,101239.31
2019-02-20T17:17:04.885Z,101234.82
2019-02-20T17:19:36.386Z,101243.53
2019-02-20T17:22:16.494Z,101240.28
2019-02-20T17:24:48.097Z,101242.80
2019-02-20T17:27:31.856Z,101241.36
2019-02-20T17:30:16.663Z,101241.72
2019-02-20T17:32:50.514Z,101246.89
2019-02-20T17:35:23.725Z,101248.48
2019-02-20T17:37:55.237Z,101251.09
2019-02-20T17:40:39.852Z,101249.20
2019-02-20T17:43:11.832Z,101256.12
2019-02-20T17:45:45.447Z,101255.95
2019-02-20T17:48:19.130Z,101253.09
2019-02-20T17:50:50.851Z,101263.00
2019-02-20T17:53:22.296Z,101259.83
2019-02-20T17:55:57.831Z,101259.22
2019-02-20T17:58:30.438Z,101266.07
2019-02-20T18:01:06.423Z,101268.96
2019-02-20T18:03:37.955Z,101271.84
2019-02-20T18:06:11.035Z,101280.55
2019-02-20T18:08:42.577Z,101284.75
2019-02-20T18:11:14.552Z,101285.92
2019-02-20T18:13:46.159Z,101292.33
2019-02-20T18:16:17.667Z,101298.37
2019-02-20T18:18:49.095Z,101301.87
2019-02-20T18:21:20.599Z,101303.54
2019-02-20T18:23:52.168Z,101303.50
2019-02-20T18:26:25.750Z,101314.33
2019-02-20T18:28:57.656Z,101314.20
2019-02-20T18:31:29.162Z,101314.50
2019-02-20T18:34:03.080Z,101314.42
2019-02-20T18:36:37.098Z,101308.59
2019-02-20T18:39:08.775Z,101316.77
2019-02-20T18:41:41.964Z,101317.14
2019-02-20T18:44:16.310Z,101317.06
2019-02-20T18:46:47.604Z,101319.14
2019-02-20T18:49:21.242Z,101322.38
2019-02-20T18:51:52.171Z,101322.33
2019-02-20T18:54:23.834Z,101328.28
2019-02-20T18:56:55.840Z,101335.69
2019-02-20T18:59:27.187Z,101337.63
2019-02-20T19:01:58.779Z,101336.98
2019-02-20T19:04:30.294Z,101337.55
2019-02-20T19:07:10.896Z,101339.90
2019-02-20T19:09:46.869Z,101338.77
2019-02-20T19:12:34.720Z,101338.16
2019-02-20T19:15:37.799Z,101339.75
2019-02-20T19:19:02.536Z,101341.42
2019-02-20T19:21:54.223Z,101346.68
2019-02-20T19:24:54.466Z,101349.11
2019-02-20T19:28:01.113Z,101346.75
2019-02-20T19:31:06.204Z,101348.81
2019-02-20T19:33:51.158Z,101348.39
2019-02-20T19:36:35.662Z,101352.08
2019-02-20T19:39:33.694Z,101348.94
2019-02-20T19:42:29.129Z,101351.45
2019-02-20T19:45:33.858Z,101352.80
2019-02-20T19:48:58.096Z,101352.52
2019-02-20T19:51:58.150Z,101354.65
2019-02-20T19:54:52.146Z,101368.69
2019-02-20T19:57:40.616Z,101365.64
2019-02-20T20:00:22.024Z,101363.72
2019-02-20T20:03:01.455Z,101367.59
2019-02-20T20:06:03.461Z,101371.95
2019-02-20T20:08:57.989Z,101374.23
2019-02-20T20:11:48.934Z,101376.78
2019-02-20T20:14:36.956Z,101376.41
2019-02-20T20:17:38.811Z,101377.30
2019-02-20T20:20:32.713Z,101381.59
2019-02-20T20:23:35.363Z,101379.42
2019-02-20T20:26:40.017Z,101376.63
2019-02-20T20:29:39.785Z,101374.77
2019-02-20T20:32:19.074Z,101377.66
2019-02-20T20:35:18.657Z,101377.17
2019-02-20T20:37:57.446Z,101372.74
2019-02-20T20:41:03.618Z,101379.06
2019-02-20T20:43:57.694Z,101374.77
2019-02-20T20:46:59.342Z,101373.11
2019-02-20T20:49:41.695Z,101370.27
2019-02-20T20:52:50.945Z,101378.48
2019-02-20T20:55:49.378Z,101379.24
2019-02-20T20:58:33.945Z,101373.53
2019-02-20T21:01:15.473Z,101370.64
2019-02-20T21:04:20.316Z,101375.41
2019-02-20T21:07:17.258Z,101378.16
2019-02-20T21:09:59.136Z,101385.48
2019-02-20T21:12:49.869Z,101382.11
2019-02-20T21:15:34.091Z,101387.92
2019-02-20T21:18:52.523Z,101388.20
2019-02-20T21:21:47.645Z,101386.48
2019-02-20T21:24:49.513Z,101388.00
2019-02-20T21:27:47.247Z,101389.17
2019-02-20T21:30:28.866Z,101387.13
2019-02-20T21:33:44.575Z,101386.72
2019-02-20T21:36:28.892Z,101390.51
2019-02-20T21:39:28.786Z,101396.09
2019-02-20T21:42:29.225Z,101394.72
2019-02-20T21:45:17.146Z,101392.92
2019-02-20T21:48:10.988Z,101400.23
2019-02-20T21:51:20.252Z,101400.58
2019-02-20T21:54:04.994Z,101398.44
2019-02-20T21:56:55.875Z,101402.30
2019-02-20T21:59:43.822Z,101403.88
2019-02-20T22:02:28.828Z,101407.73
2019-02-20T22:05:19.735Z,101400.14
2019-02-20T22:08:15.634Z,101405.73
2019-02-20T22:11:11.287Z,101401.17
2019-02-20T22:14:06.817Z,101400.69
2019-02-20T22:16:45.682Z,101401.37
2019-02-20T22:19:39.394Z,101404.89
2019-02-20T22:22:33.455Z,101397.92
2019-02-20T22:25:30.289Z,101397.62
2019-02-20T22:28:33.920Z,101398.23
2019-02-20T22:31:25.536Z,101397.67
2019-02-20T22:34:19.448Z,101405.88
2019-02-20T22:37:12.643Z,101404.28
2019-02-20T22:40:15.866Z,101398.48
2019-02-20T22:43:20.458Z,101395.38
2019-02-20T22:46:20.385Z,101395.03
2019-02-20T22:49:01.967Z,101399.64
2019-02-20T22:52:05.048Z,101402.03
2019-02-20T22:54:59.104Z,101403.13
2019-02-20T22:57:59.320Z,101408.14
2019-02-20T23:01:17.788Z,101409.97
2019-02-20T23:04:15.642Z,101414.16
2019-02-20T23:07:01.293Z,101421.86
2019-02-20T23:09:46.239Z,101427.20
2019-02-20T23:12:45.467Z,101421.51
2019-02-20T23:15:16.937Z,101423.56
2019-02-20T23:17:48.267Z,101427.33
2019-02-20T23:20:19.663Z,101427.17
2019-02-20T23:22:50.937Z,101424.07
2019-02-20T23:25:22.243Z,101430.37
2019-02-20T23:27:53.762Z,101430.06
2019-02-20T23:30:25.093Z,101434.66
2019-02-20T23:32:56.494Z,101433.42
2019-02-20T23:35:28.631Z,101435.28
2019-02-20T23:37:59.941Z,101443.06
2019-02-20T23:40:31.220Z,101446.27
2019-02-20T23:43:02.615Z,101451.83
2019-02-20T23:45:33.968Z,101454.12
2019-02-20T23:48:05.374Z,101450.84
2019-02-20T23:50:38.112Z,101459.34
2019-02-20T23:53:09.466Z,101451.41
2019-02-20T23:55:40.780Z,101451.09
2019-02-20T23:58:12.131Z,101449.95
